Jay, New York
Current Conditions -  °F | °C
As of 12:14 PM on Saturday 25 Oct 2014 (Local Time) from KSLK Reporting Station
Overcast Overcast  
Wind Chill: 45°   Ceiling: 3000
Heat Index: 48°   Visibility: 10mi
Dew Point: 41°   Wind: 7mph
Humidity: 77%   Direction: 200°SSW
Pressure: 29.65"   Gusts: NA
Location:  44.37°N, 73.73°W
Report Text: KSLK 251614Z AUTO 20006KT 10SM SCT021 BKN030 OVC042 09/05 A2965 RMK AO2 PRESFR T00890050
Loading
Personal Weather Stations






























Interactive Weather Map
Tropical Storm Tracking
New forecast layout! Learn more

10-Day Weather Forecast

Advertisements
Track Severe Weather on mobile